createdAt,value
2018-08-23T00:01:29.390Z,99.90
2018-08-23T00:04:03.403Z,99.90
2018-08-23T00:06:32.440Z,99.90
2018-08-23T00:09:01.447Z,99.90
2018-08-23T00:11:35.077Z,99.90
2018-08-23T00:14:04.228Z,99.90
2018-08-23T00:16:40.070Z,99.90
2018-08-23T00:19:09.051Z,99.90
2018-08-23T00:21:41.406Z,99.90
2018-08-23T00:24:12.072Z,99.90
2018-08-23T00:26:55.811Z,99.90
2018-08-23T00:29:30.118Z,99.90
2018-08-23T00:32:05.380Z,99.90
2018-08-23T00:34:38.564Z,99.90
2018-08-23T00:37:08.233Z,99.90
2018-08-23T00:39:37.541Z,99.90
2018-08-23T00:42:11.203Z,99.90
2018-08-23T00:44:57.039Z,99.90
2018-08-23T00:47:28.210Z,99.90
2018-08-23T00:49:57.242Z,99.90
2018-08-23T00:52:50.201Z,99.90
2018-08-23T00:55:31.550Z,99.90
2018-08-23T00:58:00.512Z,99.90
2018-08-23T01:00:29.521Z,99.90
2018-08-23T01:03:01.356Z,99.90
2018-08-23T01:05:35.902Z,99.90
2018-08-23T01:08:06.390Z,99.90
2018-08-23T01:10:37.872Z,99.90
2018-08-23T01:13:06.878Z,99.90
2018-08-23T01:15:35.867Z,99.90
2018-08-23T01:18:16.129Z,99.90
2018-08-23T01:20:46.206Z,99.90
2018-08-23T01:23:15.228Z,99.90
2018-08-23T01:25:45.454Z,99.90
2018-08-23T01:28:14.413Z,99.90
2018-08-23T01:30:43.880Z,99.90
2018-08-23T01:33:14.495Z,99.90
2018-08-23T01:35:44.767Z,99.90
2018-08-23T01:38:14.475Z,99.90
2018-08-23T01:40:43.520Z,99.90
2018-08-23T01:43:12.523Z,99.90
2018-08-23T01:45:41.471Z,99.90
2018-08-23T01:48:11.261Z,99.90
2018-08-23T01:50:40.445Z,99.90
2018-08-23T01:53:09.443Z,99.90
2018-08-23T01:55:38.987Z,99.90
2018-08-23T01:58:07.964Z,99.90
2018-08-23T02:00:36.960Z,99.90
2018-08-23T02:03:05.951Z,99.90
2018-08-23T02:05:37.719Z,99.90
2018-08-23T02:08:07.515Z,99.90
2018-08-23T02:10:36.521Z,99.90
2018-08-23T02:13:11.026Z,99.90
2018-08-23T02:15:45.492Z,99.90
2018-08-23T02:18:14.465Z,99.90
2018-08-23T02:20:43.474Z,99.90
2018-08-23T02:23:12.444Z,99.90
2018-08-23T02:25:41.406Z,99.90
2018-08-23T02:28:11.531Z,99.90
2018-08-23T02:30:48.169Z,99.90
2018-08-23T02:33:17.460Z,99.90
2018-08-23T02:35:59.385Z,99.90
2018-08-23T02:38:29.420Z,99.90
2018-08-23T02:40:58.973Z,99.90
2018-08-23T02:43:27.987Z,99.90
2018-08-23T02:45:57.168Z,99.90
2018-08-23T02:48:26.116Z,99.90
2018-08-23T02:50:55.089Z,99.90
2018-08-23T02:53:34.028Z,99.90
2018-08-23T02:56:10.871Z,99.90
2018-08-23T02:58:49.861Z,99.90
2018-08-23T03:01:18.881Z,99.90
2018-08-23T03:04:00.599Z,99.90
2018-08-23T03:06:35.628Z,99.90
2018-08-23T03:09:05.834Z,99.90
2018-08-23T03:11:36.479Z,99.90
2018-08-23T03:14:05.986Z,99.90
2018-08-23T03:16:47.772Z,99.90
2018-08-23T03:19:16.815Z,99.90
2018-08-23T03:21:46.517Z,99.90
2018-08-23T03:24:20.041Z,99.90
2018-08-23T03:26:49.145Z,99.90
2018-08-23T03:29:18.071Z,99.90
2018-08-23T03:31:47.044Z,99.90
2018-08-23T03:34:16.171Z,99.90
2018-08-23T03:36:45.134Z,99.90
2018-08-23T03:39:14.084Z,99.90
2018-08-23T03:41:43.155Z,99.90
2018-08-23T03:44:24.593Z,99.90
2018-08-23T03:46:54.902Z,99.90
2018-08-23T03:49:32.275Z,99.90
2018-08-23T03:52:01.671Z,99.90
2018-08-23T03:54:31.468Z,99.90
2018-08-23T03:57:13.278Z,99.90
2018-08-23T03:59:45.721Z,99.90
2018-08-23T04:02:15.754Z,99.90
2018-08-23T04:04:48.568Z,99.90
2018-08-23T04:07:18.066Z,99.90
2018-08-23T04:09:47.013Z,99.90
2018-08-23T04:12:16.575Z,99.90
2018-08-23T04:14:45.628Z,99.90
2018-08-23T04:17:14.617Z,99.90
2018-08-23T04:19:47.433Z,99.90
2018-08-23T04:22:16.817Z,99.90
2018-08-23T04:24:54.339Z,99.90
2018-08-23T04:27:23.305Z,99.90
2018-08-23T04:29:52.292Z,99.90
2018-08-23T04:32:29.034Z,99.90
2018-08-23T04:34:59.537Z,99.90
2018-08-23T04:37:29.332Z,99.90
2018-08-23T04:40:05.190Z,99.90
2018-08-23T04:42:34.870Z,99.90
2018-08-23T04:45:11.669Z,99.90
2018-08-23T04:48:08.555Z,99.90
2018-08-23T04:50:38.934Z,99.90
2018-08-23T04:53:07.927Z,99.90
2018-08-23T04:55:36.993Z,99.90
2018-08-23T04:58:06.117Z,99.90
2018-08-23T05:00:35.108Z,99.90
2018-08-23T05:03:04.116Z,99.90
2018-08-23T05:05:33.071Z,99.90
2018-08-23T05:08:02.117Z,99.90
2018-08-23T05:10:31.082Z,99.90
2018-08-23T05:13:00.089Z,99.90
2018-08-23T05:15:29.068Z,99.90
2018-08-23T05:17:58.009Z,99.90
2018-08-23T05:20:26.994Z,99.90
2018-08-23T05:23:02.110Z,99.90
2018-08-23T05:25:31.082Z,99.90
2018-08-23T05:28:26.267Z,99.90
2018-08-23T05:30:55.412Z,99.90
2018-08-23T05:33:24.419Z,99.90
2018-08-23T05:35:54.078Z,99.90
2018-08-23T05:38:23.050Z,99.90
2018-08-23T05:40:56.179Z,99.90
2018-08-23T05:43:25.133Z,99.90
2018-08-23T05:45:55.529Z,99.90
2018-08-23T05:48:32.099Z,99.90
2018-08-23T05:51:07.562Z,99.90
2018-08-23T05:53:58.425Z,99.90
2018-08-23T05:56:27.445Z,99.90
2018-08-23T05:59:00.661Z,99.90
2018-08-23T06:01:29.824Z,99.90
2018-08-23T06:03:58.773Z,99.90
2018-08-23T06:06:27.971Z,99.90
2018-08-23T06:09:00.425Z,99.90
2018-08-23T06:11:29.685Z,99.90
2018-08-23T06:13:58.624Z,99.90
2018-08-23T06:16:27.612Z,99.90
2018-08-23T06:18:56.560Z,99.90
2018-08-23T06:21:25.514Z,99.90
2018-08-23T06:24:11.276Z,99.90
2018-08-23T06:26:46.591Z,99.90
2018-08-23T06:29:19.606Z,99.90
2018-08-23T06:31:56.754Z,99.90
2018-08-23T06:34:26.597Z,99.90
2018-08-23T06:36:55.963Z,99.90
2018-08-23T06:39:24.912Z,99.90
2018-08-23T06:41:55.132Z,99.90
2018-08-23T06:44:28.987Z,99.20
2018-08-23T06:46:57.976Z,99.00
2018-08-23T06:49:26.931Z,99.30
2018-08-23T06:52:07.833Z,99.30
2018-08-23T06:54:36.814Z,98.40
2018-08-23T06:57:05.773Z,98.60
2018-08-23T06:59:34.755Z,98.60
2018-08-23T07:02:03.729Z,98.60
2018-08-23T07:04:32.781Z,97.70
2018-08-23T07:07:01.779Z,97.80
2018-08-23T07:09:38.565Z,97.20
2018-08-23T07:12:12.999Z,96.80
2018-08-23T07:14:41.973Z,96.40
2018-08-23T07:17:17.994Z,95.60
2018-08-23T07:19:47.816Z,94.80
2018-08-23T07:22:21.850Z,94.80
2018-08-23T07:24:51.873Z,94.60
2018-08-23T07:27:21.697Z,94.60
2018-08-23T07:29:52.939Z,94.30
2018-08-23T07:32:22.952Z,93.80
2018-08-23T07:35:29.614Z,93.70
2018-08-23T07:37:58.870Z,93.30
2018-08-23T07:40:27.933Z,93.30
2018-08-23T07:42:57.161Z,92.90
2018-08-23T07:45:26.091Z,92.80
2018-08-23T07:47:56.042Z,92.50
2018-08-23T07:50:25.046Z,91.60
2018-08-23T07:52:54.777Z,91.50
2018-08-23T07:55:23.667Z,90.90
2018-08-23T07:57:52.640Z,90.70
2018-08-23T08:00:35.819Z,90.50
2018-08-23T08:03:05.005Z,89.80
2018-08-23T08:05:36.739Z,89.80
2018-08-23T08:08:06.519Z,90.00
2018-08-23T08:10:43.639Z,89.20
2018-08-23T08:13:12.714Z,88.80
2018-08-23T08:15:41.692Z,87.80
2018-08-23T08:18:13.742Z,86.90
2018-08-23T08:20:46.718Z,86.80
2018-08-23T08:23:17.439Z,85.10
2018-08-23T08:25:46.490Z,85.00
2018-08-23T08:28:17.142Z,84.70
2018-08-23T08:30:47.079Z,83.90
2018-08-23T08:33:21.133Z,84.20
2018-08-23T08:35:50.771Z,82.30
2018-08-23T08:38:19.749Z,81.90
2018-08-23T08:40:51.478Z,82.30
2018-08-23T08:43:20.471Z,83.00
2018-08-23T08:45:53.795Z,81.20
2018-08-23T08:48:33.401Z,80.50
2018-08-23T08:51:17.399Z,81.50
2018-08-23T08:53:47.010Z,81.00
2018-08-23T08:56:16.979Z,81.20
2018-08-23T08:58:45.978Z,83.00
2018-08-23T09:01:14.931Z,82.30
2018-08-23T09:03:44.433Z,80.80
2018-08-23T09:06:18.192Z,81.60
2018-08-23T09:08:47.157Z,81.70
2018-08-23T09:11:16.327Z,81.60
2018-08-23T09:13:46.366Z,81.20
2018-08-23T09:16:15.398Z,81.90
2018-08-23T09:18:53.841Z,82.20
2018-08-23T09:21:22.785Z,84.00
2018-08-23T09:23:52.189Z,85.60
2018-08-23T09:26:25.088Z,85.50
2018-08-23T09:28:54.059Z,84.40
2018-08-23T09:31:23.032Z,87.90
2018-08-23T09:33:52.011Z,87.80
2018-08-23T09:36:20.960Z,87.70
2018-08-23T09:38:49.909Z,86.90
2018-08-23T09:41:18.994Z,86.00
2018-08-23T09:43:47.981Z,84.90
2018-08-23T09:46:17.015Z,86.00
2018-08-23T09:48:45.988Z,85.30
2018-08-23T09:51:20.315Z,84.40
2018-08-23T09:53:49.272Z,83.30
2018-08-23T09:56:23.538Z,82.90
2018-08-23T09:58:52.629Z,82.20
2018-08-23T10:01:26.933Z,82.80
2018-08-23T10:04:01.286Z,84.80
2018-08-23T10:06:35.609Z,84.60
2018-08-23T10:09:16.563Z,84.10
2018-08-23T10:11:51.255Z,82.20
2018-08-23T10:14:25.707Z,82.60
2018-08-23T10:17:00.036Z,83.60
2018-08-23T10:19:34.984Z,83.00
2018-08-23T10:22:09.388Z,82.70
2018-08-23T10:24:38.386Z,82.40
2018-08-23T10:27:07.443Z,83.50
2018-08-23T10:29:36.492Z,82.40
2018-08-23T10:32:05.513Z,80.90
2018-08-23T10:34:34.516Z,79.60
2018-08-23T10:37:03.680Z,78.80
2018-08-23T10:39:32.647Z,79.10
2018-08-23T10:42:01.667Z,78.90
2018-08-23T10:44:30.680Z,77.40
2018-08-23T10:46:59.718Z,79.10
2018-08-23T10:49:28.699Z,81.10
2018-08-23T10:51:58.674Z,79.30
2018-08-23T10:54:28.063Z,77.40
2018-08-23T10:56:57.909Z,76.90
2018-08-23T10:59:26.885Z,78.40
2018-08-23T11:01:55.955Z,76.50
2018-08-23T11:04:24.925Z,75.80
2018-08-23T11:06:58.055Z,75.20
2018-08-23T11:09:32.523Z,74.60
2018-08-23T11:12:01.600Z,75.30
2018-08-23T11:14:46.157Z,75.10
2018-08-23T11:17:20.557Z,74.50
2018-08-23T11:19:54.996Z,73.30
2018-08-23T11:22:28.266Z,73.90
2018-08-23T11:24:57.245Z,73.40
2018-08-23T11:27:26.224Z,74.10
2018-08-23T11:29:55.234Z,74.70
2018-08-23T11:32:24.398Z,75.60
2018-08-23T11:34:53.435Z,76.10
2018-08-23T11:37:22.509Z,74.00
2018-08-23T11:39:52.496Z,71.20
2018-08-23T11:42:21.457Z,71.90
2018-08-23T11:44:50.501Z,69.50
2018-08-23T11:47:19.527Z,70.90
2018-08-23T11:49:48.486Z,72.90
2018-08-23T11:52:17.491Z,73.40
2018-08-23T11:54:46.500Z,74.10
2018-08-23T11:57:15.472Z,74.90
2018-08-23T11:59:44.539Z,76.00
2018-08-23T12:02:13.575Z,73.90
2018-08-23T12:04:42.571Z,74.80
2018-08-23T12:07:11.607Z,74.20
2018-08-23T12:09:40.620Z,73.40
2018-08-23T12:12:09.989Z,75.50
2018-08-23T12:14:38.953Z,76.00
2018-08-23T12:17:07.920Z,77.70
2018-08-23T12:19:36.895Z,77.80
2018-08-23T12:22:06.032Z,76.20
2018-08-23T12:24:35.042Z,75.30
2018-08-23T12:27:04.011Z,74.60
2018-08-23T12:29:33.029Z,75.00
2018-08-23T12:32:02.844Z,77.20
2018-08-23T12:34:33.598Z,78.50
2018-08-23T12:37:07.993Z,79.70
2018-08-23T12:39:42.190Z,80.10
2018-08-23T12:42:16.556Z,79.70
2018-08-23T12:44:50.785Z,76.10
2018-08-23T12:47:19.763Z,72.60
2018-08-23T12:49:49.769Z,72.50
2018-08-23T12:52:20.179Z,72.80
2018-08-23T12:54:49.141Z,73.20
2018-08-23T12:57:18.119Z,77.10
2018-08-23T12:59:47.094Z,78.10
2018-08-23T13:02:16.269Z,77.20
2018-08-23T13:04:45.303Z,76.40
2018-08-23T13:07:14.391Z,75.60
2018-08-23T13:09:43.660Z,76.10
2018-08-23T13:12:12.624Z,76.00
2018-08-23T13:14:41.606Z,75.00
2018-08-23T13:17:10.733Z,73.90
2018-08-23T13:19:39.816Z,69.30
2018-08-23T13:22:08.772Z,69.00
2018-08-23T13:24:43.083Z,72.30
2018-08-23T13:27:12.060Z,71.80
2018-08-23T13:29:41.016Z,70.80
2018-08-23T13:32:10.057Z,72.20
2018-08-23T13:34:39.036Z,71.50
2018-08-23T13:37:08.164Z,71.80
2018-08-23T13:39:37.245Z,72.80
2018-08-23T13:42:06.548Z,73.20
2018-08-23T13:44:35.512Z,73.40
2018-08-23T13:47:04.981Z,74.50
2018-08-23T13:49:34.627Z,74.30
2018-08-23T13:52:03.829Z,74.50
2018-08-23T13:54:32.936Z,70.60
2018-08-23T13:57:01.974Z,68.70
2018-08-23T13:59:31.103Z,71.70
2018-08-23T14:02:00.234Z,71.40
2018-08-23T14:04:29.390Z,72.20
2018-08-23T14:06:58.570Z,73.20
2018-08-23T14:09:27.809Z,73.30
2018-08-23T14:11:56.970Z,73.90
2018-08-23T14:14:26.832Z,75.10
2018-08-23T14:16:56.459Z,75.60
2018-08-23T14:19:27.238Z,74.60
2018-08-23T14:21:56.851Z,73.40
2018-08-23T14:24:26.898Z,72.70
2018-08-23T14:26:57.321Z,72.00
2018-08-23T14:29:27.861Z,72.10
2018-08-23T14:31:57.617Z,73.00
2018-08-23T14:34:27.246Z,73.20
2018-08-23T14:36:57.618Z,72.50
2018-08-23T14:39:26.793Z,71.80
2018-08-23T14:41:56.286Z,70.50
2018-08-23T14:44:25.585Z,69.90
2018-08-23T14:47:00.096Z,69.70
2018-08-23T14:49:35.469Z,69.40
2018-08-23T14:52:06.943Z,68.80
2018-08-23T14:54:41.958Z,66.80
2018-08-23T14:57:16.335Z,67.10
2018-08-23T14:59:45.696Z,66.20
2018-08-23T15:02:14.674Z,68.00
2018-08-23T15:04:47.175Z,70.80
2018-08-23T15:07:16.906Z,69.60
2018-08-23T15:09:46.321Z,68.20
2018-08-23T15:12:15.454Z,66.80
2018-08-23T15:14:44.545Z,67.00
2018-08-23T15:17:13.951Z,67.90
2018-08-23T15:19:43.678Z,68.60
2018-08-23T15:22:12.701Z,69.20
2018-08-23T15:24:41.692Z,68.90
2018-08-23T15:27:11.037Z,68.30
2018-08-23T15:29:40.019Z,67.20
2018-08-23T15:32:09.044Z,66.40
2018-08-23T15:34:38.059Z,68.80
2018-08-23T15:37:07.526Z,69.20
2018-08-23T15:39:39.897Z,70.40
2018-08-23T15:42:09.589Z,71.20
2018-08-23T15:44:38.549Z,71.30
2018-08-23T15:47:07.598Z,72.10
2018-08-23T15:49:36.579Z,73.60
2018-08-23T15:52:05.584Z,73.40
2018-08-23T15:54:34.628Z,73.80
2018-08-23T15:57:03.779Z,74.10
2018-08-23T15:59:32.716Z,74.40
2018-08-23T16:02:01.864Z,73.50
2018-08-23T16:04:30.830Z,73.50
2018-08-23T16:06:59.849Z,73.50
2018-08-23T16:09:28.931Z,74.70
2018-08-23T16:11:58.949Z,74.90
2018-08-23T16:14:27.988Z,75.70
2018-08-23T16:17:02.297Z,75.30
2018-08-23T16:19:36.668Z,75.70
2018-08-23T16:22:05.853Z,76.20
2018-08-23T16:24:35.075Z,74.80
2018-08-23T16:27:04.929Z,75.50
2018-08-23T16:29:34.035Z,74.90
2018-08-23T16:32:03.336Z,74.50
2018-08-23T16:34:32.314Z,74.60
2018-08-23T16:37:01.294Z,74.70
2018-08-23T16:39:30.289Z,74.90
2018-08-23T16:41:59.354Z,75.00
2018-08-23T16:44:28.352Z,75.60
2018-08-23T16:46:57.474Z,75.40
2018-08-23T16:49:27.388Z,76.00
2018-08-23T16:51:56.524Z,76.20
2018-08-23T16:54:32.184Z,76.10
2018-08-23T16:57:01.307Z,76.70
2018-08-23T16:59:30.281Z,77.20
2018-08-23T17:01:59.320Z,77.10
2018-08-23T17:04:34.364Z,77.10
2018-08-23T17:07:03.390Z,77.30
2018-08-23T17:09:32.359Z,76.90
2018-08-23T17:12:01.472Z,76.60
2018-08-23T17:14:30.420Z,77.10
2018-08-23T17:17:05.261Z,76.60
2018-08-23T17:19:34.287Z,76.70
2018-08-23T17:22:03.231Z,76.70
2018-08-23T17:24:32.334Z,77.10
2018-08-23T17:27:01.296Z,77.40
2018-08-23T17:29:30.823Z,77.90
2018-08-23T17:32:00.057Z,77.80
2018-08-23T17:34:29.078Z,78.30
2018-08-23T17:36:58.126Z,78.60
2018-08-23T17:39:27.222Z,79.00
2018-08-23T17:41:56.218Z,79.30
2018-08-23T17:44:25.249Z,79.70
2018-08-23T17:46:54.261Z,80.40
2018-08-23T17:49:23.259Z,80.80
2018-08-23T17:51:52.220Z,81.10
2018-08-23T17:54:21.296Z,81.60
2018-08-23T17:56:50.380Z,82.00
2018-08-23T17:59:19.323Z,82.50
2018-08-23T18:01:48.351Z,82.80
2018-08-23T18:04:17.424Z,83.20
2018-08-23T18:06:46.725Z,83.50
2018-08-23T18:09:15.837Z,83.80
2018-08-23T18:11:45.264Z,84.60
2018-08-23T18:14:14.416Z,85.10
2018-08-23T18:16:48.807Z,85.20
2018-08-23T18:19:18.307Z,86.40
2018-08-23T18:21:47.275Z,87.20
2018-08-23T18:24:16.258Z,87.10
2018-08-23T18:26:45.254Z,87.80
2018-08-23T18:29:14.379Z,88.50
2018-08-23T18:31:43.724Z,88.90
2018-08-23T18:34:12.814Z,89.70
2018-08-23T18:36:41.904Z,90.60
2018-08-23T18:39:11.374Z,90.70
2018-08-23T18:41:40.433Z,91.40
2018-08-23T18:44:09.451Z,91.70
2018-08-23T18:46:38.434Z,92.00
2018-08-23T18:49:07.469Z,92.20
2018-08-23T18:51:36.499Z,92.60
2018-08-23T18:54:05.644Z,93.00
2018-08-23T18:56:34.643Z,92.90
2018-08-23T18:59:03.928Z,93.60
2018-08-23T19:01:32.904Z,93.70
2018-08-23T19:04:01.941Z,94.20
2018-08-23T19:06:36.380Z,94.50
2018-08-23T19:09:13.300Z,94.40
2018-08-23T19:11:43.446Z,94.90
2018-08-23T19:14:12.589Z,95.30
2018-08-23T19:16:47.109Z,95.80
2018-08-23T19:19:16.281Z,95.90
2018-08-23T19:21:45.589Z,96.40
2018-08-23T19:24:14.862Z,96.70
2018-08-23T19:26:43.870Z,96.90
2018-08-23T19:29:12.889Z,97.10
2018-08-23T19:31:41.879Z,98.20
2018-08-23T19:34:10.922Z,98.20
2018-08-23T19:36:39.949Z,98.60
2018-08-23T19:39:10.480Z,99.20
2018-08-23T19:41:39.685Z,99.50
2018-08-23T19:44:08.899Z,99.60
2018-08-23T19:46:43.123Z,99.70
2018-08-23T19:49:17.548Z,99.90
2018-08-23T19:51:46.775Z,99.90
2018-08-23T19:54:15.792Z,99.90
2018-08-23T19:56:44.953Z,99.90
2018-08-23T19:59:14.081Z,99.90
2018-08-23T20:01:43.694Z,99.90
2018-08-23T20:04:12.727Z,99.90
2018-08-23T20:06:41.711Z,99.90
2018-08-23T20:09:10.775Z,99.90
2018-08-23T20:11:39.909Z,99.90
2018-08-23T20:14:09.000Z,99.90
2018-08-23T20:16:38.140Z,99.90
2018-08-23T20:19:07.725Z,99.90
2018-08-23T20:21:36.787Z,99.90
2018-08-23T20:24:06.104Z,99.90
2018-08-23T20:26:35.158Z,99.90
2018-08-23T20:29:05.573Z,99.90
2018-08-23T20:31:35.334Z,99.90
2018-08-23T20:34:04.459Z,99.90
2018-08-23T20:36:33.423Z,99.90
2018-08-23T20:39:03.595Z,99.90
2018-08-23T20:41:32.535Z,99.90
2018-08-23T20:44:01.491Z,99.90
2018-08-23T20:46:30.582Z,99.90
2018-08-23T20:48:59.616Z,99.90
2018-08-23T20:51:28.656Z,99.90
2018-08-23T20:53:57.656Z,99.90
2018-08-23T20:56:27.240Z,99.90
2018-08-23T20:58:56.283Z,99.90
2018-08-23T21:01:25.454Z,99.90
2018-08-23T21:03:54.494Z,99.90
2018-08-23T21:06:23.473Z,99.90
2018-08-23T21:08:52.480Z,99.90
2018-08-23T21:11:21.442Z,99.90
2018-08-23T21:13:50.480Z,99.90
2018-08-23T21:16:20.379Z,99.90
2018-08-23T21:18:49.439Z,99.90
2018-08-23T21:21:18.422Z,99.90
2018-08-23T21:23:47.408Z,99.90
2018-08-23T21:26:16.435Z,99.90
2018-08-23T21:28:45.459Z,99.90
2018-08-23T21:31:15.642Z,99.90
2018-08-23T21:33:44.638Z,99.90
2018-08-23T21:36:14.025Z,99.90
2018-08-23T21:38:42.999Z,99.90
2018-08-23T21:41:11.990Z,99.90
2018-08-23T21:43:41.000Z,99.90
2018-08-23T21:46:10.086Z,99.90
2018-08-23T21:48:39.047Z,99.90
2018-08-23T21:51:08.003Z,99.90
2018-08-23T21:53:37.007Z,99.90
2018-08-23T21:56:06.164Z,99.90
2018-08-23T21:58:35.135Z,99.90
2018-08-23T22:01:06.684Z,99.90
2018-08-23T22:03:36.188Z,99.90
2018-08-23T22:06:05.333Z,99.90
2018-08-23T22:08:34.968Z,99.90
2018-08-23T22:11:04.018Z,99.90
2018-08-23T22:13:33.643Z,99.90
2018-08-23T22:16:02.628Z,99.90
2018-08-23T22:18:31.640Z,99.90
2018-08-23T22:21:00.889Z,99.90
2018-08-23T22:23:29.939Z,99.90
2018-08-23T22:25:58.895Z,99.90
2018-08-23T22:28:28.603Z,99.90
2018-08-23T22:30:57.644Z,99.90
2018-08-23T22:33:26.627Z,99.90
2018-08-23T22:35:55.708Z,99.90
2018-08-23T22:38:24.667Z,99.90
2018-08-23T22:40:53.658Z,99.90
2018-08-23T22:43:22.698Z,99.90
2018-08-23T22:45:51.742Z,99.90
2018-08-23T22:48:20.821Z,99.90
2018-08-23T22:50:49.884Z,99.90
2018-08-23T22:53:19.034Z,99.90
2018-08-23T22:55:48.095Z,99.90
2018-08-23T22:58:17.127Z,99.90
2018-08-23T23:00:46.123Z,99.90
2018-08-23T23:03:20.545Z,99.90
2018-08-23T23:05:49.630Z,99.90
2018-08-23T23:08:18.810Z,99.90
2018-08-23T23:10:47.839Z,99.90
2018-08-23T23:13:16.934Z,99.90
2018-08-23T23:15:46.457Z,99.90
2018-08-23T23:18:15.526Z,99.90
2018-08-23T23:20:44.568Z,99.90
2018-08-23T23:23:13.657Z,99.90
2018-08-23T23:25:42.703Z,99.90
2018-08-23T23:28:12.221Z,99.90
2018-08-23T23:30:41.767Z,99.90
2018-08-23T23:33:10.723Z,99.90
2018-08-23T23:35:39.680Z,99.90
2018-08-23T23:38:08.696Z,99.90
2018-08-23T23:40:38.054Z,99.90
2018-08-23T23:43:07.088Z,99.90
2018-08-23T23:45:36.165Z,99.90
2018-08-23T23:48:05.210Z,99.90
2018-08-23T23:50:34.193Z,99.90
2018-08-23T23:53:03.264Z,99.90
2018-08-23T23:55:32.277Z,99.90
2018-08-23T23:58:01.292Z,99.90
